sensor_id;sensor_type;location;lat;lon;timestamp;P1;durP1;ratioP1;P2;durP2;ratioP2
8319;SDS011;4197;42.130;24.746;2023-08-01T00:01:25;5.88;;;5.30;;
8319;SDS011;4197;42.130;24.746;2023-08-01T00:03:55;7.07;;;5.40;;
8319;SDS011;4197;42.130;24.746;2023-08-01T00:06:24;6.75;;;5.57;;
8319;SDS011;4197;42.130;24.746;2023-08-01T00:08:52;8.80;;;5.82;;
8319;SDS011;4197;42.130;24.746;2023-08-01T00:11:20;5.93;;;5.00;;
8319;SDS011;4197;42.130;24.746;2023-08-01T00:13:48;8.75;;;5.28;;
8319;SDS011;4197;42.130;24.746;2023-08-01T00:16:17;11.18;;;5.65;;
8319;SDS011;4197;42.130;24.746;2023-08-01T00:18:45;9.65;;;5.40;;
8319;SDS011;4197;42.130;24.746;2023-08-01T00:21:15;9.93;;;6.07;;
8319;SDS011;4197;42.130;24.746;2023-08-01T00:23:43;7.30;;;5.40;;
8319;SDS011;4197;42.130;24.746;2023-08-01T00:26:11;6.88;;;5.30;;
8319;SDS011;4197;42.130;24.746;2023-08-01T00:28:39;6.35;;;5.00;;
8319;SDS011;4197;42.130;24.746;2023-08-01T00:31:08;7.05;;;5.35;;
8319;SDS011;4197;42.130;24.746;2023-08-01T00:33:36;6.30;;;5.32;;
8319;SDS011;4197;42.130;24.746;2023-08-01T00:38:53;6.90;;;5.43;;
8319;SDS011;4197;42.130;24.746;2023-08-01T00:41:21;7.20;;;5.30;;
8319;SDS011;4197;42.130;24.746;2023-08-01T00:43:49;9.27;;;4.93;;
8319;SDS011;4197;42.130;24.746;2023-08-01T00:46:17;7.68;;;4.95;;
8319;SDS011;4197;42.130;24.746;2023-08-01T00:48:46;6.57;;;5.30;;
8319;SDS011;4197;42.130;24.746;2023-08-01T00:51:14;9.02;;;5.53;;
8319;SDS011;4197;42.130;24.746;2023-08-01T00:53:45;6.88;;;4.82;;
8319;SDS011;4197;42.130;24.746;2023-08-01T00:56:14;7.82;;;5.00;;
8319;SDS011;4197;42.130;24.746;2023-08-01T00:58:42;6.10;;;4.95;;
8319;SDS011;4197;42.130;24.746;2023-08-01T01:01:10;7.00;;;4.82;;
8319;SDS011;4197;42.130;24.746;2023-08-01T01:03:40;7.05;;;5.53;;
8319;SDS011;4197;42.130;24.746;2023-08-01T01:06:09;5.70;;;4.88;;
8319;SDS011;4197;42.130;24.746;2023-08-01T01:08:44;6.28;;;4.80;;
8319;SDS011;4197;42.130;24.746;2023-08-01T01:11:13;7.40;;;5.07;;
8319;SDS011;4197;42.130;24.746;2023-08-01T01:13:41;7.00;;;4.45;;
8319;SDS011;4197;42.130;24.746;2023-08-01T01:16:10;8.88;;;5.82;;
8319;SDS011;4197;42.130;24.746;2023-08-01T01:18:38;6.32;;;5.63;;
8319;SDS011;4197;42.130;24.746;2023-08-01T01:21:07;5.72;;;4.90;;
8319;SDS011;4197;42.130;24.746;2023-08-01T01:23:51;5.57;;;4.97;;
8319;SDS011;4197;42.130;24.746;2023-08-01T01:26:20;5.72;;;5.00;;
8319;SDS011;4197;42.130;24.746;2023-08-01T01:28:49;7.68;;;4.97;;
8319;SDS011;4197;42.130;24.746;2023-08-01T01:31:19;8.32;;;5.45;;
8319;SDS011;4197;42.130;24.746;2023-08-01T01:33:47;5.20;;;4.30;;
8319;SDS011;4197;42.130;24.746;2023-08-01T01:36:18;5.75;;;5.15;;
8319;SDS011;4197;42.130;24.746;2023-08-01T01:38:46;6.25;;;4.63;;
8319;SDS011;4197;42.130;24.746;2023-08-01T01:41:14;4.85;;;4.35;;
8319;SDS011;4197;42.130;24.746;2023-08-01T01:43:42;7.15;;;5.55;;
8319;SDS011;4197;42.130;24.746;2023-08-01T01:46:11;5.90;;;5.00;;
8319;SDS011;4197;42.130;24.746;2023-08-01T01:48:39;9.25;;;5.60;;
8319;SDS011;4197;42.130;24.746;2023-08-01T01:51:08;5.30;;;4.45;;
8319;SDS011;4197;42.130;24.746;2023-08-01T01:53:38;7.43;;;4.90;;
8319;SDS011;4197;42.130;24.746;2023-08-01T01:56:06;8.98;;;4.72;;
8319;SDS011;4197;42.130;24.746;2023-08-01T01:58:35;6.60;;;5.00;;
8319;SDS011;4197;42.130;24.746;2023-08-01T02:01:03;6.35;;;5.13;;
8319;SDS011;4197;42.130;24.746;2023-08-01T02:03:32;5.28;;;4.35;;
8319;SDS011;4197;42.130;24.746;2023-08-01T02:06:00;9.85;;;5.07;;
8319;SDS011;4197;42.130;24.746;2023-08-01T02:08:29;7.93;;;4.75;;
8319;SDS011;4197;42.130;24.746;2023-08-01T02:10:59;5.28;;;4.68;;
8319;SDS011;4197;42.130;24.746;2023-08-01T02:13:28;6.18;;;5.30;;
8319;SDS011;4197;42.130;24.746;2023-08-01T02:16:00;8.05;;;4.78;;
8319;SDS011;4197;42.130;24.746;2023-08-01T02:18:29;5.88;;;4.40;;
8319;SDS011;4197;42.130;24.746;2023-08-01T02:20:57;5.28;;;4.47;;
8319;SDS011;4197;42.130;24.746;2023-08-01T02:23:26;4.57;;;4.18;;
8319;SDS011;4197;42.130;24.746;2023-08-01T02:25:54;6.88;;;3.90;;
8319;SDS011;4197;42.130;24.746;2023-08-01T02:28:24;4.40;;;4.00;;
8319;SDS011;4197;42.130;24.746;2023-08-01T02:30:52;4.95;;;4.03;;
8319;SDS011;4197;42.130;24.746;2023-08-01T02:33:20;5.15;;;3.95;;
8319;SDS011;4197;42.130;24.746;2023-08-01T02:35:48;4.18;;;3.65;;
8319;SDS011;4197;42.130;24.746;2023-08-01T02:38:17;4.75;;;4.03;;
8319;SDS011;4197;42.130;24.746;2023-08-01T02:40:45;4.45;;;3.83;;
8319;SDS011;4197;42.130;24.746;2023-08-01T02:43:13;6.97;;;4.70;;
8319;SDS011;4197;42.130;24.746;2023-08-01T02:45:43;5.47;;;4.22;;
8319;SDS011;4197;42.130;24.746;2023-08-01T02:48:11;6.00;;;4.35;;
8319;SDS011;4197;42.130;24.746;2023-08-01T02:50:39;5.47;;;4.07;;
8319;SDS011;4197;42.130;24.746;2023-08-01T02:53:07;4.28;;;3.80;;
8319;SDS011;4197;42.130;24.746;2023-08-01T02:55:36;10.32;;;5.13;;
8319;SDS011;4197;42.130;24.746;2023-08-01T02:58:05;5.32;;;4.80;;
8319;SDS011;4197;42.130;24.746;2023-08-01T03:00:33;5.57;;;4.50;;
8319;SDS011;4197;42.130;24.746;2023-08-01T03:03:04;4.43;;;3.88;;
8319;SDS011;4197;42.130;24.746;2023-08-01T03:05:35;6.10;;;5.05;;
8319;SDS011;4197;42.130;24.746;2023-08-01T03:08:04;5.68;;;4.47;;
8319;SDS011;4197;42.130;24.746;2023-08-01T03:10:32;6.88;;;4.63;;
8319;SDS011;4197;42.130;24.746;2023-08-01T03:13:03;8.90;;;5.25;;
8319;SDS011;4197;42.130;24.746;2023-08-01T03:15:31;7.45;;;4.35;;
8319;SDS011;4197;42.130;24.746;2023-08-01T03:17:59;5.35;;;4.85;;
8319;SDS011;4197;42.130;24.746;2023-08-01T03:20:29;4.97;;;4.45;;
8319;SDS011;4197;42.130;24.746;2023-08-01T03:22:58;7.32;;;4.97;;
8319;SDS011;4197;42.130;24.746;2023-08-01T03:25:26;5.95;;;4.90;;
8319;SDS011;4197;42.130;24.746;2023-08-01T03:27:57;4.70;;;4.22;;
8319;SDS011;4197;42.130;24.746;2023-08-01T03:30:26;5.10;;;4.40;;
8319;SDS011;4197;42.130;24.746;2023-08-01T03:32:54;5.97;;;4.47;;
8319;SDS011;4197;42.130;24.746;2023-08-01T03:35:22;6.43;;;4.43;;
8319;SDS011;4197;42.130;24.746;2023-08-01T03:37:52;6.18;;;4.75;;
8319;SDS011;4197;42.130;24.746;2023-08-01T03:40:21;9.85;;;4.38;;
8319;SDS011;4197;42.130;24.746;2023-08-01T03:42:49;7.38;;;4.20;;
8319;SDS011;4197;42.130;24.746;2023-08-01T03:45:17;7.32;;;4.22;;
8319;SDS011;4197;42.130;24.746;2023-08-01T03:47:45;6.80;;;4.68;;
8319;SDS011;4197;42.130;24.746;2023-08-01T03:50:14;6.40;;;5.00;;
8319;SDS011;4197;42.130;24.746;2023-08-01T03:52:42;4.75;;;4.22;;
8319;SDS011;4197;42.130;24.746;2023-08-01T03:55:12;6.75;;;4.32;;
8319;SDS011;4197;42.130;24.746;2023-08-01T03:57:40;7.75;;;4.63;;
8319;SDS011;4197;42.130;24.746;2023-08-01T04:00:11;6.65;;;4.40;;
8319;SDS011;4197;42.130;24.746;2023-08-01T04:02:45;9.75;;;5.00;;
8319;SDS011;4197;42.130;24.746;2023-08-01T04:05:14;8.25;;;5.07;;
8319;SDS011;4197;42.130;24.746;2023-08-01T04:07:44;13.52;;;5.25;;
8319;SDS011;4197;42.130;24.746;2023-08-01T04:10:14;5.93;;;5.10;;
8319;SDS011;4197;42.130;24.746;2023-08-01T04:12:43;10.18;;;4.55;;
8319;SDS011;4197;42.130;24.746;2023-08-01T04:15:11;10.40;;;5.30;;
8319;SDS011;4197;42.130;24.746;2023-08-01T04:17:39;10.02;;;5.47;;
8319;SDS011;4197;42.130;24.746;2023-08-01T04:20:08;12.45;;;5.55;;
8319;SDS011;4197;42.130;24.746;2023-08-01T04:22:37;8.07;;;5.40;;
8319;SDS011;4197;42.130;24.746;2023-08-01T04:25:06;8.75;;;4.82;;
8319;SDS011;4197;42.130;24.746;2023-08-01T04:27:36;9.50;;;5.43;;
8319;SDS011;4197;42.130;24.746;2023-08-01T04:30:04;11.55;;;5.35;;
8319;SDS011;4197;42.130;24.746;2023-08-01T04:32:34;9.25;;;4.95;;
8319;SDS011;4197;42.130;24.746;2023-08-01T04:35:02;10.60;;;5.45;;
8319;SDS011;4197;42.130;24.746;2023-08-01T04:37:31;13.43;;;5.95;;
8319;SDS011;4197;42.130;24.746;2023-08-01T04:39:59;12.10;;;5.95;;
8319;SDS011;4197;42.130;24.746;2023-08-01T04:42:28;9.77;;;5.10;;
8319;SDS011;4197;42.130;24.746;2023-08-01T04:44:58;15.57;;;5.30;;
8319;SDS011;4197;42.130;24.746;2023-08-01T04:47:26;8.35;;;5.38;;
8319;SDS011;4197;42.130;24.746;2023-08-01T04:49:54;21.48;;;6.05;;
8319;SDS011;4197;42.130;24.746;2023-08-01T04:52:22;13.10;;;5.53;;
8319;SDS011;4197;42.130;24.746;2023-08-01T04:54:51;11.55;;;5.70;;
8319;SDS011;4197;42.130;24.746;2023-08-01T04:57:19;15.02;;;6.07;;
8319;SDS011;4197;42.130;24.746;2023-08-01T04:59:47;7.57;;;4.47;;
8319;SDS011;4197;42.130;24.746;2023-08-01T05:02:17;7.82;;;4.57;;
8319;SDS011;4197;42.130;24.746;2023-08-01T05:04:46;6.22;;;4.78;;
8319;SDS011;4197;42.130;24.746;2023-08-01T05:07:14;14.77;;;5.38;;
8319;SDS011;4197;42.130;24.746;2023-08-01T05:09:42;11.45;;;6.00;;
8319;SDS011;4197;42.130;24.746;2023-08-01T05:12:10;14.27;;;5.85;;
8319;SDS011;4197;42.130;24.746;2023-08-01T05:14:39;11.00;;;6.78;;
8319;SDS011;4197;42.130;24.746;2023-08-01T05:17:07;14.25;;;6.13;;
8319;SDS011;4197;42.130;24.746;2023-08-01T05:19:36;9.55;;;5.07;;
8319;SDS011;4197;42.130;24.746;2023-08-01T05:22:05;9.65;;;5.13;;
8319;SDS011;4197;42.130;24.746;2023-08-01T05:24:33;11.35;;;5.78;;
8319;SDS011;4197;42.130;24.746;2023-08-01T05:27:02;7.10;;;5.32;;
8319;SDS011;4197;42.130;24.746;2023-08-01T05:29:30;6.75;;;5.25;;
8319;SDS011;4197;42.130;24.746;2023-08-01T05:31:59;9.77;;;5.35;;
8319;SDS011;4197;42.130;24.746;2023-08-01T05:34:27;11.75;;;4.45;;
8319;SDS011;4197;42.130;24.746;2023-08-01T05:36:57;6.13;;;4.22;;
8319;SDS011;4197;42.130;24.746;2023-08-01T05:39:25;6.53;;;4.57;;
8319;SDS011;4197;42.130;24.746;2023-08-01T05:41:54;7.70;;;4.70;;
8319;SDS011;4197;42.130;24.746;2023-08-01T05:44:22;7.00;;;4.35;;
8319;SDS011;4197;42.130;24.746;2023-08-01T05:46:50;11.77;;;4.78;;
8319;SDS011;4197;42.130;24.746;2023-08-01T05:49:18;8.25;;;4.72;;
8319;SDS011;4197;42.130;24.746;2023-08-01T05:51:47;7.90;;;4.53;;
8319;SDS011;4197;42.130;24.746;2023-08-01T05:54:16;4.80;;;3.63;;
8319;SDS011;4197;42.130;24.746;2023-08-01T05:56:45;9.05;;;4.30;;
8319;SDS011;4197;42.130;24.746;2023-08-01T05:59:13;7.20;;;4.30;;
8319;SDS011;4197;42.130;24.746;2023-08-01T06:01:42;9.93;;;4.00;;
8319;SDS011;4197;42.130;24.746;2023-08-01T06:04:10;6.55;;;3.90;;
8319;SDS011;4197;42.130;24.746;2023-08-01T06:06:39;12.48;;;3.85;;
8319;SDS011;4197;42.130;24.746;2023-08-01T06:09:07;5.53;;;3.20;;
8319;SDS011;4197;42.130;24.746;2023-08-01T06:11:37;6.25;;;3.80;;
8319;SDS011;4197;42.130;24.746;2023-08-01T06:14:05;6.00;;;3.22;;
8319;SDS011;4197;42.130;24.746;2023-08-01T06:16:34;5.13;;;3.92;;
8319;SDS011;4197;42.130;24.746;2023-08-01T06:19:02;5.32;;;3.42;;
8319;SDS011;4197;42.130;24.746;2023-08-01T06:21:30;8.60;;;3.55;;
8319;SDS011;4197;42.130;24.746;2023-08-01T06:23:58;10.38;;;4.18;;
8319;SDS011;4197;42.130;24.746;2023-08-01T06:26:27;7.13;;;2.75;;
8319;SDS011;4197;42.130;24.746;2023-08-01T06:28:56;4.82;;;3.30;;
8319;SDS011;4197;42.130;24.746;2023-08-01T06:31:25;7.47;;;4.38;;
8319;SDS011;4197;42.130;24.746;2023-08-01T06:33:53;9.05;;;3.60;;
8319;SDS011;4197;42.130;24.746;2023-08-01T06:36:22;6.03;;;4.82;;
8319;SDS011;4197;42.130;24.746;2023-08-01T06:38:50;10.00;;;3.97;;
8319;SDS011;4197;42.130;24.746;2023-08-01T06:41:18;7.30;;;3.47;;
8319;SDS011;4197;42.130;24.746;2023-08-01T06:43:47;9.43;;;3.95;;
8319;SDS011;4197;42.130;24.746;2023-08-01T06:46:16;4.30;;;3.40;;
8319;SDS011;4197;42.130;24.746;2023-08-01T06:48:44;6.95;;;3.67;;
8319;SDS011;4197;42.130;24.746;2023-08-01T06:51:12;7.10;;;3.55;;
8319;SDS011;4197;42.130;24.746;2023-08-01T06:53:41;6.53;;;3.03;;
8319;SDS011;4197;42.130;24.746;2023-08-01T06:56:12;5.22;;;3.08;;
8319;SDS011;4197;42.130;24.746;2023-08-01T06:58:40;9.48;;;3.22;;
8319;SDS011;4197;42.130;24.746;2023-08-01T07:01:09;5.28;;;3.10;;
8319;SDS011;4197;42.130;24.746;2023-08-01T07:03:38;5.88;;;3.22;;
8319;SDS011;4197;42.130;24.746;2023-08-01T07:06:07;8.60;;;3.42;;
8319;SDS011;4197;42.130;24.746;2023-08-01T07:08:35;4.55;;;2.75;;
8319;SDS011;4197;42.130;24.746;2023-08-01T07:11:03;5.15;;;3.13;;
8319;SDS011;4197;42.130;24.746;2023-08-01T07:13:31;3.75;;;2.53;;
8319;SDS011;4197;42.130;24.746;2023-08-01T07:16:00;44.80;;;5.35;;
8319;SDS011;4197;42.130;24.746;2023-08-01T07:18:29;7.93;;;2.60;;
8319;SDS011;4197;42.130;24.746;2023-08-01T07:21:01;9.07;;;3.08;;
8319;SDS011;4197;42.130;24.746;2023-08-01T07:23:30;4.30;;;2.42;;
8319;SDS011;4197;42.130;24.746;2023-08-01T07:25:59;6.82;;;3.60;;
8319;SDS011;4197;42.130;24.746;2023-08-01T07:28:27;8.90;;;3.47;;
8319;SDS011;4197;42.130;24.746;2023-08-01T07:30:58;4.75;;;3.28;;
8319;SDS011;4197;42.130;24.746;2023-08-01T07:33:27;13.63;;;4.18;;
8319;SDS011;4197;42.130;24.746;2023-08-01T07:35:56;4.32;;;2.90;;
8319;SDS011;4197;42.130;24.746;2023-08-01T07:38:25;6.88;;;3.05;;
8319;SDS011;4197;42.130;24.746;2023-08-01T07:40:54;4.45;;;2.80;;
8319;SDS011;4197;42.130;24.746;2023-08-01T07:43:23;6.15;;;2.80;;
8319;SDS011;4197;42.130;24.746;2023-08-01T07:45:55;4.03;;;3.17;;
8319;SDS011;4197;42.130;24.746;2023-08-01T07:48:23;4.03;;;2.55;;
8319;SDS011;4197;42.130;24.746;2023-08-01T07:50:52;5.15;;;2.17;;
8319;SDS011;4197;42.130;24.746;2023-08-01T07:53:20;4.32;;;3.08;;
8319;SDS011;4197;42.130;24.746;2023-08-01T07:55:51;7.13;;;2.60;;
8319;SDS011;4197;42.130;24.746;2023-08-01T07:58:19;7.07;;;2.97;;
8319;SDS011;4197;42.130;24.746;2023-08-01T08:00:48;6.35;;;3.08;;
8319;SDS011;4197;42.130;24.746;2023-08-01T08:03:16;6.43;;;3.13;;
8319;SDS011;4197;42.130;24.746;2023-08-01T08:05:45;8.70;;;3.03;;
8319;SDS011;4197;42.130;24.746;2023-08-01T08:08:13;5.25;;;2.50;;
8319;SDS011;4197;42.130;24.746;2023-08-01T08:10:42;4.45;;;3.00;;
8319;SDS011;4197;42.130;24.746;2023-08-01T08:13:11;23.90;;;3.50;;
8319;SDS011;4197;42.130;24.746;2023-08-01T08:15:41;7.22;;;2.92;;
8319;SDS011;4197;42.130;24.746;2023-08-01T08:18:09;4.88;;;3.03;;
8319;SDS011;4197;42.130;24.746;2023-08-01T08:20:40;4.50;;;2.92;;
8319;SDS011;4197;42.130;24.746;2023-08-01T08:23:10;7.50;;;3.67;;
8319;SDS011;4197;42.130;24.746;2023-08-01T08:25:40;7.22;;;2.90;;
8319;SDS011;4197;42.130;24.746;2023-08-01T08:28:13;7.25;;;3.55;;
8319;SDS011;4197;42.130;24.746;2023-08-01T08:30:41;4.25;;;2.90;;
8319;SDS011;4197;42.130;24.746;2023-08-01T08:33:09;5.70;;;3.00;;
8319;SDS011;4197;42.130;24.746;2023-08-01T08:35:47;5.85;;;2.97;;
8319;SDS011;4197;42.130;24.746;2023-08-01T08:38:16;3.33;;;3.03;;
8319;SDS011;4197;42.130;24.746;2023-08-01T08:40:48;4.32;;;3.10;;
8319;SDS011;4197;42.130;24.746;2023-08-01T08:43:24;5.28;;;2.78;;
8319;SDS011;4197;42.130;24.746;2023-08-01T08:45:56;3.78;;;2.80;;
8319;SDS011;4197;42.130;24.746;2023-08-01T08:48:27;3.85;;;2.90;;
8319;SDS011;4197;42.130;24.746;2023-08-01T08:50:57;7.90;;;3.35;;
8319;SDS011;4197;42.130;24.746;2023-08-01T08:53:27;4.47;;;2.90;;
8319;SDS011;4197;42.130;24.746;2023-08-01T08:55:55;4.15;;;3.17;;
8319;SDS011;4197;42.130;24.746;2023-08-01T08:58:25;4.95;;;2.63;;
8319;SDS011;4197;42.130;24.746;2023-08-01T09:00:54;3.95;;;3.00;;
8319;SDS011;4197;42.130;24.746;2023-08-01T09:03:22;3.38;;;3.00;;
8319;SDS011;4197;42.130;24.746;2023-08-01T09:05:54;4.95;;;3.25;;
8319;SDS011;4197;42.130;24.746;2023-08-01T09:08:30;5.93;;;3.22;;
8319;SDS011;4197;42.130;24.746;2023-08-01T09:11:02;5.20;;;3.17;;
8319;SDS011;4197;42.130;24.746;2023-08-01T09:13:33;5.50;;;3.13;;
8319;SDS011;4197;42.130;24.746;2023-08-01T09:16:02;4.90;;;3.00;;
8319;SDS011;4197;42.130;24.746;2023-08-01T09:18:33;5.95;;;2.85;;
8319;SDS011;4197;42.130;24.746;2023-08-01T09:21:01;3.10;;;2.80;;
8319;SDS011;4197;42.130;24.746;2023-08-01T09:23:30;6.18;;;3.40;;
8319;SDS011;4197;42.130;24.746;2023-08-01T09:25:59;3.88;;;3.15;;
8319;SDS011;4197;42.130;24.746;2023-08-01T09:28:27;5.80;;;3.50;;
8319;SDS011;4197;42.130;24.746;2023-08-01T09:30:56;3.33;;;3.03;;
8319;SDS011;4197;42.130;24.746;2023-08-01T09:33:25;6.45;;;3.28;;
8319;SDS011;4197;42.130;24.746;2023-08-01T09:35:53;3.50;;;3.17;;
8319;SDS011;4197;42.130;24.746;2023-08-01T09:38:22;4.95;;;3.28;;
8319;SDS011;4197;42.130;24.746;2023-08-01T09:40:52;4.38;;;3.22;;
8319;SDS011;4197;42.130;24.746;2023-08-01T09:43:20;15.43;;;4.05;;
8319;SDS011;4197;42.130;24.746;2023-08-01T09:45:49;11.45;;;4.05;;
8319;SDS011;4197;42.130;24.746;2023-08-01T09:48:23;3.92;;;3.53;;
8319;SDS011;4197;42.130;24.746;2023-08-01T09:51:03;3.80;;;3.40;;
8319;SDS011;4197;42.130;24.746;2023-08-01T09:53:32;6.00;;;3.53;;
8319;SDS011;4197;42.130;24.746;2023-08-01T09:56:01;8.75;;;3.70;;
8319;SDS011;4197;42.130;24.746;2023-08-01T09:58:32;9.60;;;3.75;;
8319;SDS011;4197;42.130;24.746;2023-08-01T10:01:02;8.25;;;4.05;;
8319;SDS011;4197;42.130;24.746;2023-08-01T10:03:33;7.35;;;3.55;;
8319;SDS011;4197;42.130;24.746;2023-08-01T10:06:03;12.27;;;4.07;;
8319;SDS011;4197;42.130;24.746;2023-08-01T10:08:33;11.43;;;3.63;;
8319;SDS011;4197;42.130;24.746;2023-08-01T10:11:03;5.90;;;3.50;;
8319;SDS011;4197;42.130;24.746;2023-08-01T10:13:32;4.32;;;3.78;;
8319;SDS011;4197;42.130;24.746;2023-08-01T10:16:01;9.90;;;4.00;;
8319;SDS011;4197;42.130;24.746;2023-08-01T10:18:30;6.47;;;4.38;;
8319;SDS011;4197;42.130;24.746;2023-08-01T10:21:01;7.90;;;3.92;;
8319;SDS011;4197;42.130;24.746;2023-08-01T10:23:30;7.00;;;4.07;;
8319;SDS011;4197;42.130;24.746;2023-08-01T10:25:59;6.05;;;4.63;;
8319;SDS011;4197;42.130;24.746;2023-08-01T10:28:33;6.78;;;4.43;;
8319;SDS011;4197;42.130;24.746;2023-08-01T10:31:08;8.05;;;4.03;;
8319;SDS011;4197;42.130;24.746;2023-08-01T10:33:41;11.15;;;4.10;;
8319;SDS011;4197;42.130;24.746;2023-08-01T10:36:15;5.07;;;3.85;;
8319;SDS011;4197;42.130;24.746;2023-08-01T10:38:47;4.53;;;3.65;;
8319;SDS011;4197;42.130;24.746;2023-08-01T10:41:19;5.80;;;3.80;;
8319;SDS011;4197;42.130;24.746;2023-08-01T10:44:03;7.93;;;4.35;;
8319;SDS011;4197;42.130;24.746;2023-08-01T10:46:45;8.70;;;4.05;;
8319;SDS011;4197;42.130;24.746;2023-08-01T10:49:15;6.10;;;4.20;;
8319;SDS011;4197;42.130;24.746;2023-08-01T10:51:45;6.88;;;4.28;;
8319;SDS011;4197;42.130;24.746;2023-08-01T10:54:19;9.98;;;4.13;;
8319;SDS011;4197;42.130;24.746;2023-08-01T10:56:52;6.82;;;4.07;;
8319;SDS011;4197;42.130;24.746;2023-08-01T10:59:21;10.27;;;4.80;;
8319;SDS011;4197;42.130;24.746;2023-08-01T11:01:50;8.15;;;4.30;;
8319;SDS011;4197;42.130;24.746;2023-08-01T11:04:21;7.32;;;4.68;;
8319;SDS011;4197;42.130;24.746;2023-08-01T11:06:52;5.07;;;4.32;;
8319;SDS011;4197;42.130;24.746;2023-08-01T11:09:23;5.70;;;4.43;;
8319;SDS011;4197;42.130;24.746;2023-08-01T11:11:53;9.95;;;4.75;;
8319;SDS011;4197;42.130;24.746;2023-08-01T11:14:24;7.30;;;4.90;;
8319;SDS011;4197;42.130;24.746;2023-08-01T11:16:53;4.95;;;4.43;;
8319;SDS011;4197;42.130;24.746;2023-08-01T11:19:23;7.40;;;4.82;;
8319;SDS011;4197;42.130;24.746;2023-08-01T11:21:54;5.68;;;4.45;;
8319;SDS011;4197;42.130;24.746;2023-08-01T11:24:24;8.45;;;4.78;;
8319;SDS011;4197;42.130;24.746;2023-08-01T11:26:54;5.47;;;4.82;;
8319;SDS011;4197;42.130;24.746;2023-08-01T11:29:22;5.93;;;4.78;;
8319;SDS011;4197;42.130;24.746;2023-08-01T11:31:54;7.22;;;4.40;;
8319;SDS011;4197;42.130;24.746;2023-08-01T11:34:23;5.55;;;4.53;;
8319;SDS011;4197;42.130;24.746;2023-08-01T11:36:52;5.63;;;5.03;;
8319;SDS011;4197;42.130;24.746;2023-08-01T11:39:22;7.30;;;4.70;;
8319;SDS011;4197;42.130;24.746;2023-08-01T11:41:50;7.05;;;4.97;;
8319;SDS011;4197;42.130;24.746;2023-08-01T11:44:23;5.25;;;4.45;;
8319;SDS011;4197;42.130;24.746;2023-08-01T11:46:51;6.00;;;4.68;;
8319;SDS011;4197;42.130;24.746;2023-08-01T11:49:19;5.68;;;4.75;;
8319;SDS011;4197;42.130;24.746;2023-08-01T11:51:48;5.30;;;4.80;;
8319;SDS011;4197;42.130;24.746;2023-08-01T11:54:18;23.77;;;6.43;;
8319;SDS011;4197;42.130;24.746;2023-08-01T11:56:48;5.65;;;5.00;;
8319;SDS011;4197;42.130;24.746;2023-08-01T11:59:16;6.40;;;5.43;;
8319;SDS011;4197;42.130;24.746;2023-08-01T12:01:46;14.93;;;6.43;;
8319;SDS011;4197;42.130;24.746;2023-08-01T12:04:23;8.70;;;5.63;;
8319;SDS011;4197;42.130;24.746;2023-08-01T12:06:52;8.68;;;5.57;;
8319;SDS011;4197;42.130;24.746;2023-08-01T12:09:21;9.15;;;5.20;;
8319;SDS011;4197;42.130;24.746;2023-08-01T12:11:57;6.80;;;5.65;;
8319;SDS011;4197;42.130;24.746;2023-08-01T12:14:26;8.38;;;5.38;;
8319;SDS011;4197;42.130;24.746;2023-08-01T12:16:55;5.68;;;4.78;;
8319;SDS011;4197;42.130;24.746;2023-08-01T12:19:23;5.45;;;4.82;;
8319;SDS011;4197;42.130;24.746;2023-08-01T12:21:51;5.63;;;5.10;;
8319;SDS011;4197;42.130;24.746;2023-08-01T12:24:19;5.30;;;4.85;;
8319;SDS011;4197;42.130;24.746;2023-08-01T12:26:49;6.32;;;4.78;;
8319;SDS011;4197;42.130;24.746;2023-08-01T12:29:17;5.65;;;4.88;;
8319;SDS011;4197;42.130;24.746;2023-08-01T12:31:46;6.13;;;5.13;;
8319;SDS011;4197;42.130;24.746;2023-08-01T12:34:14;7.28;;;5.40;;
8319;SDS011;4197;42.130;24.746;2023-08-01T12:36:42;6.15;;;5.35;;
8319;SDS011;4197;42.130;24.746;2023-08-01T12:39:11;5.72;;;5.07;;
8319;SDS011;4197;42.130;24.746;2023-08-01T12:41:40;9.52;;;4.78;;
8319;SDS011;4197;42.130;24.746;2023-08-01T12:44:08;11.15;;;5.30;;
8319;SDS011;4197;42.130;24.746;2023-08-01T12:46:37;20.67;;;6.47;;
8319;SDS011;4197;42.130;24.746;2023-08-01T12:49:06;7.70;;;5.47;;
8319;SDS011;4197;42.130;24.746;2023-08-01T12:51:34;10.32;;;4.82;;
8319;SDS011;4197;42.130;24.746;2023-08-01T12:54:02;5.07;;;4.60;;
8319;SDS011;4197;42.130;24.746;2023-08-01T12:56:31;5.25;;;4.85;;
8319;SDS011;4197;42.130;24.746;2023-08-01T12:59:01;9.10;;;5.07;;
8319;SDS011;4197;42.130;24.746;2023-08-01T13:01:29;6.13;;;5.53;;
8319;SDS011;4197;42.130;24.746;2023-08-01T13:03:58;5.75;;;5.25;;
8319;SDS011;4197;42.130;24.746;2023-08-01T13:06:27;7.13;;;5.53;;
8319;SDS011;4197;42.130;24.746;2023-08-01T13:08:55;5.68;;;4.82;;
8319;SDS011;4197;42.130;24.746;2023-08-01T13:11:28;8.35;;;5.30;;
8319;SDS011;4197;42.130;24.746;2023-08-01T13:13:57;6.15;;;5.57;;
8319;SDS011;4197;42.130;24.746;2023-08-01T13:16:27;5.60;;;4.97;;
8319;SDS011;4197;42.130;24.746;2023-08-01T13:18:55;9.77;;;5.65;;
8319;SDS011;4197;42.130;24.746;2023-08-01T13:21:23;7.43;;;5.32;;
8319;SDS011;4197;42.130;24.746;2023-08-01T13:23:51;16.95;;;7.45;;
8319;SDS011;4197;42.130;24.746;2023-08-01T13:26:19;11.15;;;5.55;;
8319;SDS011;4197;42.130;24.746;2023-08-01T13:28:48;12.20;;;5.90;;
8319;SDS011;4197;42.130;24.746;2023-08-01T13:31:16;17.20;;;6.75;;
8319;SDS011;4197;42.130;24.746;2023-08-01T13:33:46;6.55;;;5.05;;
8319;SDS011;4197;42.130;24.746;2023-08-01T13:36:14;5.47;;;4.97;;
8319;SDS011;4197;42.130;24.746;2023-08-01T13:38:42;10.57;;;5.15;;
8319;SDS011;4197;42.130;24.746;2023-08-01T13:41:10;6.68;;;5.13;;
8319;SDS011;4197;42.130;24.746;2023-08-01T13:43:38;5.78;;;5.28;;
8319;SDS011;4197;42.130;24.746;2023-08-01T13:46:12;6.25;;;5.65;;
8319;SDS011;4197;42.130;24.746;2023-08-01T13:48:56;6.85;;;5.90;;
8319;SDS011;4197;42.130;24.746;2023-08-01T13:51:24;8.18;;;5.47;;
8319;SDS011;4197;42.130;24.746;2023-08-01T13:53:54;7.18;;;5.55;;
8319;SDS011;4197;42.130;24.746;2023-08-01T13:56:26;11.07;;;5.82;;
8319;SDS011;4197;42.130;24.746;2023-08-01T13:58:54;8.43;;;4.88;;
8319;SDS011;4197;42.130;24.746;2023-08-01T14:01:22;5.55;;;5.05;;
8319;SDS011;4197;42.130;24.746;2023-08-01T14:03:51;7.70;;;5.45;;
8319;SDS011;4197;42.130;24.746;2023-08-01T14:06:21;6.82;;;6.05;;
8319;SDS011;4197;42.130;24.746;2023-08-01T14:08:49;6.00;;;5.40;;
8319;SDS011;4197;42.130;24.746;2023-08-01T14:11:17;6.32;;;5.72;;
8319;SDS011;4197;42.130;24.746;2023-08-01T14:13:45;8.55;;;6.63;;
8319;SDS011;4197;42.130;24.746;2023-08-01T14:16:14;7.57;;;5.50;;
8319;SDS011;4197;42.130;24.746;2023-08-01T14:18:42;9.32;;;6.35;;
8319;SDS011;4197;42.130;24.746;2023-08-01T14:21:11;7.97;;;5.53;;
8319;SDS011;4197;42.130;24.746;2023-08-01T14:23:41;6.65;;;6.05;;
8319;SDS011;4197;42.130;24.746;2023-08-01T14:26:09;14.55;;;6.75;;
8319;SDS011;4197;42.130;24.746;2023-08-01T14:28:37;7.93;;;5.82;;
8319;SDS011;4197;42.130;24.746;2023-08-01T14:31:05;7.63;;;6.82;;
8319;SDS011;4197;42.130;24.746;2023-08-01T14:33:34;11.27;;;6.35;;
8319;SDS011;4197;42.130;24.746;2023-08-01T14:36:06;12.13;;;6.88;;
8319;SDS011;4197;42.130;24.746;2023-08-01T14:38:35;10.35;;;6.53;;
8319;SDS011;4197;42.130;24.746;2023-08-01T14:41:05;7.22;;;6.00;;
8319;SDS011;4197;42.130;24.746;2023-08-01T14:43:47;6.38;;;5.80;;
8319;SDS011;4197;42.130;24.746;2023-08-01T14:46:16;7.22;;;5.95;;
8319;SDS011;4197;42.130;24.746;2023-08-01T14:48:45;6.00;;;5.50;;
8319;SDS011;4197;42.130;24.746;2023-08-01T14:51:13;6.50;;;5.90;;
8319;SDS011;4197;42.130;24.746;2023-08-01T14:53:41;7.50;;;6.40;;
8319;SDS011;4197;42.130;24.746;2023-08-01T14:56:11;9.23;;;6.50;;
8319;SDS011;4197;42.130;24.746;2023-08-01T14:58:39;7.53;;;6.10;;
8319;SDS011;4197;42.130;24.746;2023-08-01T15:01:11;9.63;;;7.60;;
8319;SDS011;4197;42.130;24.746;2023-08-01T15:03:40;7.28;;;6.57;;
8319;SDS011;4197;42.130;24.746;2023-08-01T15:06:09;7.03;;;6.32;;
8319;SDS011;4197;42.130;24.746;2023-08-01T15:08:39;8.70;;;6.57;;
8319;SDS011;4197;42.130;24.746;2023-08-01T15:11:07;7.40;;;6.68;;
8319;SDS011;4197;42.130;24.746;2023-08-01T15:13:37;8.88;;;6.45;;
8319;SDS011;4197;42.130;24.746;2023-08-01T15:16:08;7.72;;;6.85;;